createdAt,value
2022-09-26T00:02:18.491Z,-60
2022-09-26T00:04:44.974Z,-60
2022-09-26T00:07:11.369Z,-60
2022-09-26T00:09:37.675Z,-60
2022-09-26T00:12:04.268Z,-60
2022-09-26T00:14:30.615Z,-60
2022-09-26T00:16:57.268Z,-61
2022-09-26T00:19:24.379Z,-60
2022-09-26T00:21:50.899Z,-60
2022-09-26T00:24:17.854Z,-60
2022-09-26T00:26:44.471Z,-60
2022-09-26T00:29:12.831Z,-60
2022-09-26T00:31:42.284Z,-60
2022-09-26T00:34:11.748Z,-60
2022-09-26T00:36:39.038Z,-60
2022-09-26T00:39:09.797Z,-60
2022-09-26T00:41:36.988Z,-60
2022-09-26T00:44:24.132Z,-60
2022-09-26T00:46:50.866Z,-60
2022-09-26T00:49:31.230Z,-60
2022-09-26T00:52:02.399Z,-60
2022-09-26T00:54:30.894Z,-60
2022-09-26T00:57:04.094Z,-60
2022-09-26T00:59:39.075Z,-60
2022-09-26T01:02:05.875Z,-60
2022-09-26T01:04:35.445Z,-60
2022-09-26T01:07:16.570Z,-60
2022-09-26T01:09:43.538Z,-60
2022-09-26T01:12:10.188Z,-60
2022-09-26T01:14:37.976Z,-60
2022-09-26T01:17:05.161Z,-60
2022-09-26T01:19:50.359Z,-60
2022-09-26T01:22:54.542Z,-60
2022-09-26T01:25:31.807Z,-60
2022-09-26T01:28:21.074Z,-60
2022-09-26T01:31:02.144Z,-60
2022-09-26T01:33:45.249Z,-61
2022-09-26T01:36:22.500Z,-60
2022-09-26T01:39:11.882Z,-60
2022-09-26T01:41:50.987Z,-60
2022-09-26T01:44:27.348Z,-60
2022-09-26T01:47:05.539Z,-60
2022-09-26T01:49:55.679Z,-60
2022-09-26T01:52:35.596Z,-60
2022-09-26T01:55:09.469Z,-60
2022-09-26T01:57:44.014Z,-60
2022-09-26T02:00:13.946Z,-60
2022-09-26T02:02:45.201Z,-60
2022-09-26T02:05:25.725Z,-60
2022-09-26T02:08:16.645Z,-60
2022-09-26T02:10:49.138Z,-60
2022-09-26T02:13:35.246Z,-60
2022-09-26T02:16:15.972Z,-60
2022-09-26T02:18:50.853Z,-60
2022-09-26T02:21:20.709Z,-59
2022-09-26T02:23:49.329Z,-60
2022-09-26T02:26:16.146Z,-59
2022-09-26T02:28:42.997Z,-59
2022-09-26T02:31:11.440Z,-59
2022-09-26T02:33:37.762Z,-59
2022-09-26T02:36:07.447Z,-59
2022-09-26T02:38:34.770Z,-60
2022-09-26T02:41:35.583Z,-59
2022-09-26T02:44:26.719Z,-59
2022-09-26T02:47:12.765Z,-59
2022-09-26T02:50:08.806Z,-59
2022-09-26T02:52:39.979Z,-59
2022-09-26T02:55:14.702Z,-59
2022-09-26T02:58:23.061Z,-59
2022-09-26T03:01:17.730Z,-59
2022-09-26T03:03:50.604Z,-59
2022-09-26T03:06:20.607Z,-59
2022-09-26T03:08:49.134Z,-59
2022-09-26T03:11:23.219Z,-59
2022-09-26T03:13:53.752Z,-59
2022-09-26T03:16:21.889Z,-59
2022-09-26T03:18:58.590Z,-59
2022-09-26T03:21:25.488Z,-59
2022-09-26T03:23:51.894Z,-59
2022-09-26T03:26:24.441Z,-59
2022-09-26T03:28:52.306Z,-59
2022-09-26T03:31:22.221Z,-59
2022-09-26T03:33:49.210Z,-59
2022-09-26T03:36:15.967Z,-59
2022-09-26T03:38:42.341Z,-59
2022-09-26T03:41:09.569Z,-60
2022-09-26T03:43:36.535Z,-59
2022-09-26T03:46:05.397Z,-59
2022-09-26T03:48:33.033Z,-59
2022-09-26T03:51:05.010Z,-59
2022-09-26T03:53:36.643Z,-59
2022-09-26T03:56:05.749Z,-59
2022-09-26T03:58:32.325Z,-59
2022-09-26T04:01:13.749Z,-59
2022-09-26T04:03:46.426Z,-59
2022-09-26T04:06:19.634Z,-59
2022-09-26T04:08:48.418Z,-59
2022-09-26T04:11:18.061Z,-59
2022-09-26T04:13:53.570Z,-59
2022-09-26T04:16:22.513Z,-59
2022-09-26T04:18:49.468Z,-59
2022-09-26T04:21:16.614Z,-59
2022-09-26T04:23:44.177Z,-59
2022-09-26T04:26:22.754Z,-59
2022-09-26T04:28:51.982Z,-59
2022-09-26T04:31:18.442Z,-59
2022-09-26T04:33:45.172Z,-59
2022-09-26T04:36:13.795Z,-59
2022-09-26T04:38:41.107Z,-59
2022-09-26T04:41:10.510Z,-59
2022-09-26T04:43:37.681Z,-59
2022-09-26T04:46:33.524Z,-59
2022-09-26T04:49:00.933Z,-59
2022-09-26T04:51:28.952Z,-59
2022-09-26T04:53:55.702Z,-59
2022-09-26T04:56:23.794Z,-59
2022-09-26T04:58:50.249Z,-59
2022-09-26T05:01:19.342Z,-58
2022-09-26T05:03:46.182Z,-59
2022-09-26T05:06:13.830Z,-59
2022-09-26T05:08:43.014Z,-59
2022-09-26T05:11:09.668Z,-59
2022-09-26T05:13:37.806Z,-59
2022-09-26T05:16:06.273Z,-59
2022-09-26T05:18:33.598Z,-58
2022-09-26T05:21:01.407Z,-59
2022-09-26T05:23:46.796Z,-59
2022-09-26T05:26:34.003Z,-58
2022-09-26T05:29:06.856Z,-59
2022-09-26T05:31:36.440Z,-58
2022-09-26T05:34:07.712Z,-59
2022-09-26T05:36:34.534Z,-59
2022-09-26T05:39:01.455Z,-59
2022-09-26T05:41:32.297Z,-59
2022-09-26T05:43:59.153Z,-58
2022-09-26T05:46:28.333Z,-59
2022-09-26T05:48:55.519Z,-58
2022-09-26T05:51:23.313Z,-59
2022-09-26T05:53:49.797Z,-58
2022-09-26T05:56:19.224Z,-59
2022-09-26T05:58:46.561Z,-59
2022-09-26T06:01:15.921Z,-58
2022-09-26T06:03:44.529Z,-59
2022-09-26T06:06:15.862Z,-59
2022-09-26T06:08:43.403Z,-58
2022-09-26T06:11:27.312Z,-58
2022-09-26T06:13:55.605Z,-58
2022-09-26T06:16:22.266Z,-58
2022-09-26T06:18:50.700Z,-59
2022-09-26T06:21:18.805Z,-58
2022-09-26T06:23:45.482Z,-59
2022-09-26T06:26:16.013Z,-58
2022-09-26T06:28:42.364Z,-58
2022-09-26T06:31:15.305Z,-59
2022-09-26T06:33:42.162Z,-58
2022-09-26T06:36:11.496Z,-59
2022-09-26T06:38:38.628Z,-59
2022-09-26T06:41:07.170Z,-58
2022-09-26T06:43:33.811Z,-60
2022-09-26T06:46:00.198Z,-58
2022-09-26T06:48:27.126Z,-58
2022-09-26T06:50:55.794Z,-59
2022-09-26T06:53:22.555Z,-58
2022-09-26T06:55:49.515Z,-58
2022-09-26T06:58:15.983Z,-59
2022-09-26T07:00:42.345Z,-58
2022-09-26T07:03:08.807Z,-59
2022-09-26T07:05:35.927Z,-59
2022-09-26T07:08:02.798Z,-59
2022-09-26T07:10:30.289Z,-59
2022-09-26T07:13:03.209Z,-59
2022-09-26T07:15:32.959Z,-59
2022-09-26T07:18:02.418Z,-59
2022-09-26T07:20:34.369Z,-59
2022-09-26T07:23:02.472Z,-59
2022-09-26T07:25:31.588Z,-59
2022-09-26T07:27:58.738Z,-59
2022-09-26T07:30:25.952Z,-59
2022-09-26T07:32:52.345Z,-59
2022-09-26T07:35:18.743Z,-61
2022-09-26T07:37:45.207Z,-61
2022-09-26T07:40:12.019Z,-61
2022-09-26T07:42:38.966Z,-61
2022-09-26T07:45:28.734Z,-62
2022-09-26T07:48:11.001Z,-61
2022-09-26T07:50:37.992Z,-61
2022-09-26T07:53:04.544Z,-61
2022-09-26T07:55:30.931Z,-61
2022-09-26T07:57:58.941Z,-61
2022-09-26T08:00:30.206Z,-61
2022-09-26T08:03:01.049Z,-61
2022-09-26T08:05:27.487Z,-61
2022-09-26T08:07:53.825Z,-61
2022-09-26T08:10:23.896Z,-61
2022-09-26T08:12:50.301Z,-61
2022-09-26T08:15:16.791Z,-61
2022-09-26T08:17:45.973Z,-61
2022-09-26T08:20:12.765Z,-61
2022-09-26T08:22:39.078Z,-61
2022-09-26T08:25:07.171Z,-61
2022-09-26T08:27:34.390Z,-61
2022-09-26T08:30:02.083Z,-61
2022-09-26T08:32:32.112Z,-61
2022-09-26T08:34:58.524Z,-61
2022-09-26T08:37:29.381Z,-61
2022-09-26T08:39:55.748Z,-61
2022-09-26T08:42:42.438Z,-61
2022-09-26T08:45:50.404Z,-61
2022-09-26T08:48:34.996Z,-61
2022-09-26T08:51:28.848Z,-61
2022-09-26T08:54:02.574Z,-61
2022-09-26T08:56:44.573Z,-61
2022-09-26T08:59:33.552Z,-61
2022-09-26T09:02:09.641Z,-61
2022-09-26T09:04:51.526Z,-61
2022-09-26T09:07:23.546Z,-61
2022-09-26T09:09:53.629Z,-61
2022-09-26T09:12:40.422Z,-61
2022-09-26T09:15:25.846Z,-61
2022-09-26T09:18:00.787Z,-61
2022-09-26T09:21:00.691Z,-61
2022-09-26T09:23:52.132Z,-62
2022-09-26T09:30:17.679Z,-62
2022-09-26T09:32:50.753Z,-61
2022-09-26T09:35:20.418Z,-61
2022-09-26T09:37:52.323Z,-61
2022-09-26T09:40:33.913Z,-61
2022-09-26T09:43:16.609Z,-61
2022-09-26T09:45:51.486Z,-61
2022-09-26T09:48:17.858Z,-61
2022-09-26T09:50:56.527Z,-61
2022-09-26T09:53:36.818Z,-61
2022-09-26T09:56:20.750Z,-61
2022-09-26T09:58:59.147Z,-61
2022-09-26T10:01:52.355Z,-61
2022-09-26T10:04:39.706Z,-62
2022-09-26T10:07:06.262Z,-61
2022-09-26T10:09:42.350Z,-61
2022-09-26T10:12:16.583Z,-61
2022-09-26T10:15:06.607Z,-61
2022-09-26T10:17:33.202Z,-61
2022-09-26T10:19:59.654Z,-61
2022-09-26T10:22:32.397Z,-61
2022-09-26T10:25:16.908Z,-61
2022-09-26T10:27:51.549Z,-61
2022-09-26T10:30:18.462Z,-61
2022-09-26T10:32:50.739Z,-61
2022-09-26T10:35:42.325Z,-61
2022-09-26T10:38:29.455Z,-61
2022-09-26T10:41:01.571Z,-61
2022-09-26T10:43:30.700Z,-61
2022-09-26T10:46:05.910Z,-61
2022-09-26T10:48:47.768Z,-61
2022-09-26T10:51:31.741Z,-62
2022-09-26T10:54:16.220Z,-62
2022-09-26T10:56:47.314Z,-62
2022-09-26T10:59:19.081Z,-61
2022-09-26T11:01:50.405Z,-61
2022-09-26T11:04:39.706Z,-61
2022-09-26T11:07:08.858Z,-61
2022-09-26T11:09:38.291Z,-61
2022-09-26T11:12:27.219Z,-61
2022-09-26T11:15:06.272Z,-61
2022-09-26T11:17:53.061Z,-61
2022-09-26T11:20:50.532Z,-62
2022-09-26T11:23:39.142Z,-61
2022-09-26T11:26:23.601Z,-61
2022-09-26T11:28:53.759Z,-62
2022-09-26T11:31:41.176Z,-62
2022-09-26T11:34:13.609Z,-61
2022-09-26T11:37:02.346Z,-61
2022-09-26T11:40:11.461Z,-61
2022-09-26T11:43:03.926Z,-61
2022-09-26T11:45:56.209Z,-61
2022-09-26T11:48:44.333Z,-61
2022-09-26T11:51:49.070Z,-61
2022-09-26T11:54:33.423Z,-61
2022-09-26T11:57:34.421Z,-61
2022-09-26T12:00:24.544Z,-61
2022-09-26T12:03:17.590Z,-61
2022-09-26T12:05:54.657Z,-61
2022-09-26T12:08:42.231Z,-61
2022-09-26T12:11:17.232Z,-61
2022-09-26T12:14:01.083Z,-61
2022-09-26T12:16:39.335Z,-61
2022-09-26T12:19:28.026Z,-61
2022-09-26T12:22:31.676Z,-62
2022-09-26T12:25:54.276Z,-61
2022-09-26T12:28:38.044Z,-61
2022-09-26T12:31:34.154Z,-61
2022-09-26T12:34:19.434Z,-61
2022-09-26T12:37:10.006Z,-62
2022-09-26T12:40:10.696Z,-62
2022-09-26T12:42:49.387Z,-61
2022-09-26T12:45:42.117Z,-62
2022-09-26T12:48:30.098Z,-61
2022-09-26T12:51:16.169Z,-61
2022-09-26T12:53:49.903Z,-61
2022-09-26T12:56:30.961Z,-61
2022-09-26T12:59:29.153Z,-62
2022-09-26T13:02:23.011Z,-61
2022-09-26T13:05:03.187Z,-61
2022-09-26T13:07:55.864Z,-61
2022-09-26T13:10:34.425Z,-61
2022-09-26T13:13:33.168Z,-61
2022-09-26T13:15:59.628Z,-61
2022-09-26T13:18:37.477Z,-61
2022-09-26T13:21:12.016Z,-61
2022-09-26T13:24:13.707Z,-61
2022-09-26T13:26:46.823Z,-62
2022-09-26T13:29:21.836Z,-61
2022-09-26T13:31:59.745Z,-61
2022-09-26T13:34:34.789Z,-61
2022-09-26T13:37:04.251Z,-61
2022-09-26T13:39:39.417Z,-61
2022-09-26T13:42:18.241Z,-61
2022-09-26T13:45:13.496Z,-61
2022-09-26T13:48:24.116Z,-61
2022-09-26T13:50:55.537Z,-61
2022-09-26T13:53:21.873Z,-61
2022-09-26T13:56:27.601Z,-61
2022-09-26T13:59:08.252Z,-61
2022-09-26T14:01:36.049Z,-61
2022-09-26T14:04:36.531Z,-61
2022-09-26T14:07:29.081Z,-61
2022-09-26T14:10:17.542Z,-61
2022-09-26T14:12:55.844Z,-61
2022-09-26T14:15:47.021Z,-61
2022-09-26T14:18:28.262Z,-61
2022-09-26T14:20:57.606Z,-61
2022-09-26T14:23:42.415Z,-61
2022-09-26T14:26:27.141Z,-61
2022-09-26T14:28:54.785Z,-61
2022-09-26T14:31:24.262Z,-61
2022-09-26T14:34:08.210Z,-61
2022-09-26T14:36:35.391Z,-61
2022-09-26T14:39:03.918Z,-61
2022-09-26T14:41:34.462Z,-61
2022-09-26T14:44:04.467Z,-61
2022-09-26T14:46:35.415Z,-61
2022-09-26T14:49:05.543Z,-61
2022-09-26T14:51:38.908Z,-61
2022-09-26T14:54:24.525Z,-61
2022-09-26T14:57:00.857Z,-61
2022-09-26T14:59:33.334Z,-61
2022-09-26T15:02:15.194Z,-61
2022-09-26T15:04:58.949Z,-62
2022-09-26T15:07:26.534Z,-61
2022-09-26T15:09:59.717Z,-61
2022-09-26T15:12:29.531Z,-61
2022-09-26T15:15:05.305Z,-61
2022-09-26T15:17:34.837Z,-61
2022-09-26T15:20:05.573Z,-61
2022-09-26T15:22:32.185Z,-62
2022-09-26T15:25:32.231Z,-61
2022-09-26T15:27:59.804Z,-61
2022-09-26T15:30:34.229Z,-61
2022-09-26T15:33:04.647Z,-61
2022-09-26T15:35:32.303Z,-62
2022-09-26T15:38:09.450Z,-61
2022-09-26T15:40:36.084Z,-62
2022-09-26T15:43:20.579Z,-61
2022-09-26T15:45:47.005Z,-61
2022-09-26T15:48:19.393Z,-63
2022-09-26T15:50:52.301Z,-61
2022-09-26T15:53:23.121Z,-61
2022-09-26T15:56:03.922Z,-61
2022-09-26T15:58:49.173Z,-61
2022-09-26T16:01:21.992Z,-62
2022-09-26T16:04:00.887Z,-61
2022-09-26T16:06:36.329Z,-61
2022-09-26T16:09:12.434Z,-61
2022-09-26T16:11:53.237Z,-63
2022-09-26T16:14:31.265Z,-62
2022-09-26T16:17:11.830Z,-61
2022-09-26T16:19:45.778Z,-61
2022-09-26T16:22:23.024Z,-61
2022-09-26T16:24:50.692Z,-61
2022-09-26T16:27:33.160Z,-61
2022-09-26T16:30:04.674Z,-62
2022-09-26T16:32:32.024Z,-61
2022-09-26T16:35:11.420Z,-61
2022-09-26T16:37:37.860Z,-61
2022-09-26T16:40:04.548Z,-61
2022-09-26T16:42:31.663Z,-62
2022-09-26T16:45:02.702Z,-61
2022-09-26T16:47:45.164Z,-62
2022-09-26T16:50:28.721Z,-62
2022-09-26T16:52:55.654Z,-61
2022-09-26T16:55:23.258Z,-61
2022-09-26T16:57:56.453Z,-61
2022-09-26T17:00:46.820Z,-61
2022-09-26T17:03:22.835Z,-61
2022-09-26T17:05:51.630Z,-61
2022-09-26T17:08:18.461Z,-61
2022-09-26T17:10:46.110Z,-61
2022-09-26T17:13:21.652Z,-61
2022-09-26T17:15:50.655Z,-61
2022-09-26T17:18:21.121Z,-61
2022-09-26T17:20:48.903Z,-62
2022-09-26T17:23:38.109Z,-61
2022-09-26T17:26:02.796Z,-65
2022-09-26T17:28:34.519Z,-61
2022-09-26T17:31:06.307Z,-62
2022-09-26T17:33:36.415Z,-61
2022-09-26T17:36:03.220Z,-61
2022-09-26T17:38:30.163Z,-61
2022-09-26T17:40:56.645Z,-62
2022-09-26T17:43:23.124Z,-61
2022-09-26T17:45:51.403Z,-61
2022-09-26T17:48:27.326Z,-61
2022-09-26T17:50:55.591Z,-61
2022-09-26T17:53:25.407Z,-61
2022-09-26T17:55:53.131Z,-61
2022-09-26T17:58:19.877Z,-61
2022-09-26T18:00:49.817Z,-62
2022-09-26T18:03:23.281Z,-61
2022-09-26T18:05:50.465Z,-61
2022-09-26T18:08:25.990Z,-61
2022-09-26T18:10:59.040Z,-61
2022-09-26T18:13:29.227Z,-61
2022-09-26T18:15:57.562Z,-61
2022-09-26T18:18:27.813Z,-61
2022-09-26T18:20:57.302Z,-62
2022-09-26T18:23:27.136Z,-61
2022-09-26T18:25:55.858Z,-61
2022-09-26T18:28:23.485Z,-61
2022-09-26T18:30:57.889Z,-61
2022-09-26T18:33:27.602Z,-61
2022-09-26T18:35:54.049Z,-61
2022-09-26T18:38:21.633Z,-61
2022-09-26T18:40:55.293Z,-61
2022-09-26T18:43:23.659Z,-61
2022-09-26T18:45:50.779Z,-61
2022-09-26T18:48:32.644Z,-61
2022-09-26T18:50:59.821Z,-61
2022-09-26T18:53:37.009Z,-61
2022-09-26T18:56:23.640Z,-60
2022-09-26T18:58:50.134Z,-61
2022-09-26T19:01:35.089Z,-61
2022-09-26T19:04:04.340Z,-61
2022-09-26T19:06:34.483Z,-61
2022-09-26T19:09:04.342Z,-61
2022-09-26T19:11:35.043Z,-61
2022-09-26T19:14:17.094Z,-61
2022-09-26T19:16:44.970Z,-61
2022-09-26T19:19:11.718Z,-63
2022-09-26T19:21:41.514Z,-61
2022-09-26T19:24:20.460Z,-64
2022-09-26T19:26:50.313Z,-62
2022-09-26T19:29:27.413Z,-61
2022-09-26T19:31:54.042Z,-64
2022-09-26T19:34:20.747Z,-62
2022-09-26T19:36:47.120Z,-61
2022-09-26T19:39:15.272Z,-61
2022-09-26T19:41:41.969Z,-62
2022-09-26T19:44:08.422Z,-61
2022-09-26T19:46:36.963Z,-61
2022-09-26T19:49:05.302Z,-62
2022-09-26T19:51:36.530Z,-61
2022-09-26T19:54:06.255Z,-61
2022-09-26T19:56:32.967Z,-61
2022-09-26T19:58:59.488Z,-62
2022-09-26T20:01:26.088Z,-63
2022-09-26T20:03:52.727Z,-61
2022-09-26T20:06:24.517Z,-61
2022-09-26T20:08:55.395Z,-61
2022-09-26T20:11:24.279Z,-61
2022-09-26T20:14:08.964Z,-61
2022-09-26T20:16:38.561Z,-61
2022-09-26T20:19:06.014Z,-61
2022-09-26T20:21:33.149Z,-61
2022-09-26T20:24:03.101Z,-61
2022-09-26T20:26:32.600Z,-61
2022-09-26T20:28:58.975Z,-61
2022-09-26T20:31:27.383Z,-61
2022-09-26T20:33:55.568Z,-61
2022-09-26T20:36:27.539Z,-61
2022-09-26T20:38:57.070Z,-61
2022-09-26T20:41:32.137Z,-62
2022-09-26T20:44:03.583Z,-61
2022-09-26T20:46:45.486Z,-61
2022-09-26T20:49:16.223Z,-61
2022-09-26T20:51:43.545Z,-61
2022-09-26T20:54:28.877Z,-61
2022-09-26T20:56:57.490Z,-61
2022-09-26T20:59:25.586Z,-61
2022-09-26T21:01:54.017Z,-61
2022-09-26T21:04:29.926Z,-61
2022-09-26T21:06:56.622Z,-61
2022-09-26T21:09:23.092Z,-61
2022-09-26T21:11:49.543Z,-61
2022-09-26T21:14:19.177Z,-61
2022-09-26T21:16:50.094Z,-61
2022-09-26T21:19:20.716Z,-61
2022-09-26T21:21:47.348Z,-61
2022-09-26T21:24:24.785Z,-61
2022-09-26T21:26:51.738Z,-61
2022-09-26T21:29:18.306Z,-61
2022-09-26T21:31:48.384Z,-61
2022-09-26T21:34:21.688Z,-61
2022-09-26T21:36:49.170Z,-61
2022-09-26T21:39:17.770Z,-61
2022-09-26T21:41:49.515Z,-61
2022-09-26T21:44:32.273Z,-61
2022-09-26T21:46:58.646Z,-61
2022-09-26T21:49:25.205Z,-61
2022-09-26T21:52:00.475Z,-61
2022-09-26T21:54:33.820Z,-61
2022-09-26T21:57:10.361Z,-61
2022-09-26T21:59:38.388Z,-61
2022-09-26T22:02:05.283Z,-61
2022-09-26T22:04:32.052Z,-61
2022-09-26T22:06:58.398Z,-61
2022-09-26T22:09:24.749Z,-61
2022-09-26T22:11:51.797Z,-61
2022-09-26T22:14:18.178Z,-61
2022-09-26T22:16:44.666Z,-61
2022-09-26T22:19:11.090Z,-61
2022-09-26T22:21:37.526Z,-61
2022-09-26T22:24:03.934Z,-61
2022-09-26T22:26:30.312Z,-61
2022-09-26T22:28:56.778Z,-61
2022-09-26T22:31:23.232Z,-61
2022-09-26T22:33:49.638Z,-61
2022-09-26T22:36:16.521Z,-61
2022-09-26T22:38:42.907Z,-61
2022-09-26T22:41:09.349Z,-61
2022-09-26T22:43:36.191Z,-61
2022-09-26T22:46:03.811Z,-61
2022-09-26T22:48:35.253Z,-61
2022-09-26T22:51:01.824Z,-61
2022-09-26T22:53:31.106Z,-61
2022-09-26T22:55:58.270Z,-61
2022-09-26T22:58:26.039Z,-61
2022-09-26T23:00:52.487Z,-61
2022-09-26T23:03:18.943Z,-61
2022-09-26T23:05:49.826Z,-62
2022-09-26T23:08:16.212Z,-61
2022-09-26T23:10:53.012Z,-59
2022-09-26T23:13:19.590Z,-59
2022-09-26T23:15:46.185Z,-59
2022-09-26T23:18:13.482Z,-59
2022-09-26T23:20:43.726Z,-59
2022-09-26T23:23:12.231Z,-59
2022-09-26T23:25:47.503Z,-59
2022-09-26T23:28:14.251Z,-59
2022-09-26T23:30:41.078Z,-59
2022-09-26T23:33:07.962Z,-59
2022-09-26T23:35:34.794Z,-59
2022-09-26T23:38:01.555Z,-59
2022-09-26T23:40:29.561Z,-59
2022-09-26T23:42:56.059Z,-60
2022-09-26T23:45:22.464Z,-59
2022-09-26T23:47:49.308Z,-59
2022-09-26T23:50:16.254Z,-59
2022-09-26T23:52:42.740Z,-59
2022-09-26T23:55:09.332Z,-59
2022-09-26T23:57:36.323Z,-59
